createdAt,value
2024-05-09T00:00:45.151Z,101813.11
2024-05-09T00:03:33.710Z,101815.92
2024-05-09T00:06:02.387Z,101817.42
2024-05-09T00:08:31.023Z,101821.16
2024-05-09T00:10:59.642Z,101828.39
2024-05-09T00:13:28.224Z,101833.98
2024-05-09T00:15:56.805Z,101840.34
2024-05-09T00:18:25.476Z,101838.89
2024-05-09T00:20:54.153Z,101839.92
2024-05-09T00:23:22.778Z,101841.35
2024-05-09T00:25:52.261Z,101834.52
2024-05-09T00:28:20.576Z,101835.85
2024-05-09T00:30:48.843Z,101838.52
2024-05-09T00:33:17.655Z,101836.54
2024-05-09T00:35:46.445Z,101834.67
2024-05-09T00:38:14.816Z,101832.40
2024-05-09T00:40:43.935Z,101830.29
2024-05-09T00:43:13.911Z,101829.66
2024-05-09T00:45:43.916Z,101829.73
2024-05-09T00:48:17.541Z,101828.05
2024-05-09T00:50:49.346Z,101828.02
2024-05-09T00:53:18.388Z,101827.95
2024-05-09T00:55:47.684Z,101825.56
2024-05-09T00:58:20.418Z,101828.27
2024-05-09T01:00:50.494Z,101820.81
2024-05-09T01:03:20.112Z,101818.67
2024-05-09T01:05:48.648Z,101817.11
2024-05-09T01:08:17.678Z,101813.69
2024-05-09T01:10:48.002Z,101811.34
2024-05-09T01:13:17.139Z,101813.08
2024-05-09T01:15:47.452Z,101806.52
2024-05-09T01:18:16.099Z,101802.98
2024-05-09T01:20:45.717Z,101801.62
2024-05-09T01:23:16.024Z,101803.13
2024-05-09T01:25:46.917Z,101801.59
2024-05-09T01:28:15.639Z,101801.92
2024-05-09T01:30:44.129Z,101800.84
2024-05-09T01:33:13.931Z,101797.87
2024-05-09T01:35:43.193Z,101799.84
2024-05-09T01:38:16.413Z,101801.20
2024-05-09T01:40:45.992Z,101802.58
2024-05-09T01:43:15.506Z,101803.66
2024-05-09T01:45:43.770Z,101803.67
2024-05-09T01:48:12.602Z,101801.07
2024-05-09T01:50:42.951Z,101801.30
2024-05-09T01:53:14.466Z,101796.16
2024-05-09T01:55:43.684Z,101793.58
2024-05-09T01:58:13.069Z,101791.95
2024-05-09T02:00:43.094Z,101788.64
2024-05-09T02:03:15.947Z,101786.06
2024-05-09T02:05:47.871Z,101791.27
2024-05-09T02:08:21.547Z,101788.64
2024-05-09T02:10:50.755Z,101789.83
2024-05-09T02:13:19.376Z,101792.64
2024-05-09T02:15:53.639Z,101793.39
2024-05-09T02:18:22.023Z,101796.10
2024-05-09T02:20:50.362Z,101802.83
2024-05-09T02:23:19.348Z,101806.61
2024-05-09T02:25:47.949Z,101806.95
2024-05-09T02:28:16.219Z,101810.05
2024-05-09T02:30:44.481Z,101809.01
2024-05-09T02:33:14.567Z,101810.80
2024-05-09T02:35:44.307Z,101813.22
2024-05-09T02:38:13.520Z,101813.52
2024-05-09T02:40:42.284Z,101814.64
2024-05-09T02:43:12.558Z,101813.71
2024-05-09T02:45:41.843Z,101814.36
2024-05-09T02:48:12.442Z,101813.17
2024-05-09T02:50:44.712Z,101813.16
2024-05-09T02:53:14.488Z,101811.02
2024-05-09T02:55:43.356Z,101810.43
2024-05-09T02:58:13.506Z,101809.18
2024-05-09T03:00:42.999Z,101813.00
2024-05-09T03:03:14.208Z,101811.81
2024-05-09T03:05:45.309Z,101813.44
2024-05-09T03:08:14.296Z,101809.97
2024-05-09T03:10:43.095Z,101812.56
2024-05-09T03:13:15.022Z,101809.45
2024-05-09T03:15:45.248Z,101812.59
2024-05-09T03:18:14.954Z,101817.70
2024-05-09T03:20:44.032Z,101821.89
2024-05-09T03:23:13.304Z,101820.44
2024-05-09T03:25:42.034Z,101825.49
2024-05-09T03:28:13.898Z,101825.95
2024-05-09T03:30:43.272Z,101828.77
2024-05-09T03:33:17.409Z,101829.23
2024-05-09T03:35:48.153Z,101831.91
2024-05-09T03:38:17.307Z,101833.19
2024-05-09T03:40:50.560Z,101833.28
2024-05-09T03:43:19.662Z,101834.52
2024-05-09T03:45:50.230Z,101838.11
2024-05-09T03:48:19.005Z,101839.03
2024-05-09T03:50:47.680Z,101832.35
2024-05-09T03:53:18.853Z,101826.16
2024-05-09T03:55:50.324Z,101820.30
2024-05-09T03:58:18.870Z,101822.79
2024-05-09T04:00:47.361Z,101821.66
2024-05-09T04:03:16.190Z,101819.14
2024-05-09T04:05:45.093Z,101823.21
2024-05-09T04:08:14.877Z,101827.63
2024-05-09T04:10:43.614Z,101833.85
2024-05-09T04:13:12.247Z,101839.85
2024-05-09T04:15:40.802Z,101843.91
2024-05-09T04:18:09.128Z,101845.95
2024-05-09T04:20:40.375Z,101845.37
2024-05-09T04:23:14.444Z,101846.14
2024-05-09T04:25:44.007Z,101844.13
2024-05-09T04:28:13.116Z,101848.70
2024-05-09T04:30:42.426Z,101848.46
2024-05-09T04:33:16.740Z,101852.08
2024-05-09T04:35:45.727Z,101852.41
2024-05-09T04:38:15.284Z,101855.39
2024-05-09T04:40:44.190Z,101856.59
2024-05-09T04:43:18.189Z,101853.84
2024-05-09T04:45:47.462Z,101858.02
2024-05-09T04:48:15.789Z,101862.21
2024-05-09T04:50:44.368Z,101861.27
2024-05-09T04:53:16.119Z,101862.61
2024-05-09T04:55:44.928Z,101866.66
2024-05-09T04:58:13.358Z,101868.30
2024-05-09T05:00:42.084Z,101871.02
2024-05-09T05:03:13.656Z,101870.79
2024-05-09T05:05:45.321Z,101874.56
2024-05-09T05:08:16.295Z,101874.52
2024-05-09T05:10:47.169Z,101871.78
2024-05-09T05:13:19.287Z,101869.17
2024-05-09T05:15:52.601Z,101869.30
2024-05-09T05:18:21.696Z,101869.79
2024-05-09T05:20:53.967Z,101868.86
2024-05-09T05:23:23.116Z,101873.79
2024-05-09T05:25:52.266Z,101878.77
2024-05-09T05:28:21.253Z,101879.73
2024-05-09T05:31:15.241Z,101884.34
2024-05-09T05:33:43.560Z,101882.16
2024-05-09T05:36:13.143Z,101878.45
2024-05-09T05:38:41.907Z,101882.84
2024-05-09T05:41:10.553Z,101879.95
2024-05-09T05:43:39.000Z,101879.48
2024-05-09T05:46:07.277Z,101888.61
2024-05-09T05:48:35.758Z,101884.91
2024-05-09T05:51:08.127Z,101887.91
2024-05-09T05:53:36.752Z,101887.75
2024-05-09T05:56:06.343Z,101889.89
2024-05-09T05:58:34.708Z,101890.52
2024-05-09T06:01:03.244Z,101888.88
2024-05-09T06:03:32.134Z,101891.52
2024-05-09T06:06:03.804Z,101897.41
2024-05-09T06:08:36.597Z,101895.21
2024-05-09T06:11:05.304Z,101895.02
2024-05-09T06:13:33.653Z,101903.70
2024-05-09T06:16:04.292Z,101903.72
2024-05-09T06:18:32.874Z,101907.08
2024-05-09T06:21:01.489Z,101905.85
2024-05-09T06:23:30.067Z,101908.56
2024-05-09T06:25:58.367Z,101908.58
2024-05-09T06:28:27.501Z,101906.95
2024-05-09T06:30:56.386Z,101906.71
2024-05-09T06:33:24.825Z,101910.09
2024-05-09T06:35:58.567Z,101912.11
2024-05-09T06:38:27.210Z,101913.14
2024-05-09T06:40:55.656Z,101909.90
2024-05-09T06:43:24.217Z,101912.16
2024-05-09T06:45:52.739Z,101909.95
2024-05-09T06:48:22.295Z,101910.75
2024-05-09T06:50:51.261Z,101911.43
2024-05-09T06:53:23.076Z,101911.83
2024-05-09T06:55:53.643Z,101912.27
2024-05-09T06:58:22.210Z,101914.90
2024-05-09T07:00:50.955Z,101922.83
2024-05-09T07:03:20.436Z,101923.17
2024-05-09T07:05:49.861Z,101923.21
2024-05-09T07:08:19.339Z,101925.73
2024-05-09T07:10:48.175Z,101926.70
2024-05-09T07:13:19.996Z,101921.19
2024-05-09T07:15:48.613Z,101922.19
2024-05-09T07:18:19.913Z,101922.59
2024-05-09T07:20:50.165Z,101923.75
2024-05-09T07:23:19.288Z,101923.36
2024-05-09T07:25:47.995Z,101924.16
2024-05-09T07:28:19.288Z,101922.95
2024-05-09T07:30:47.930Z,101923.60
2024-05-09T07:33:22.204Z,101917.19
2024-05-09T07:35:52.548Z,101915.20
2024-05-09T07:38:21.087Z,101920.36
2024-05-09T07:40:49.707Z,101920.00
2024-05-09T07:43:18.145Z,101923.42
2024-05-09T07:45:52.513Z,101927.40
2024-05-09T07:52:38.993Z,101929.83
2024-05-09T07:53:49.158Z,101935.44
2024-05-09T07:56:22.897Z,101933.98
2024-05-09T07:58:53.790Z,101934.84
2024-05-09T08:01:25.009Z,101934.54
2024-05-09T08:03:54.531Z,101932.45
2024-05-09T08:06:23.726Z,101931.98
2024-05-09T08:08:54.684Z,101933.28
2024-05-09T08:11:23.962Z,101934.38
2024-05-09T08:13:52.694Z,101935.80
2024-05-09T08:16:22.413Z,101935.02
2024-05-09T08:18:51.683Z,101938.82
2024-05-09T08:21:20.388Z,101934.56
2024-05-09T08:23:48.646Z,101933.86
2024-05-09T08:26:17.036Z,101935.83
2024-05-09T08:28:45.350Z,101933.58
2024-05-09T08:31:14.569Z,101933.13
2024-05-09T08:33:50.985Z,101932.74
2024-05-09T08:36:19.627Z,101933.43
2024-05-09T08:38:48.110Z,101934.52
2024-05-09T08:41:17.926Z,101936.27
2024-05-09T08:43:47.658Z,101937.46
2024-05-09T08:46:17.969Z,101934.61
2024-05-09T08:48:49.625Z,101932.48
2024-05-09T08:51:19.400Z,101931.22
2024-05-09T08:53:48.488Z,101932.07
2024-05-09T08:56:20.747Z,101931.70
2024-05-09T08:58:55.983Z,101936.18
2024-05-09T09:01:26.493Z,101936.55
2024-05-09T09:03:55.478Z,101936.14
2024-05-09T09:06:25.201Z,101933.36
2024-05-09T09:08:56.658Z,101932.84
2024-05-09T09:11:26.156Z,101933.83
2024-05-09T09:13:54.630Z,101930.52
2024-05-09T09:16:36.619Z,101929.73
2024-05-09T09:19:05.310Z,101928.30
2024-05-09T09:21:34.693Z,101926.73
2024-05-09T09:24:03.290Z,101920.73
2024-05-09T09:26:31.934Z,101922.17
2024-05-09T09:29:02.407Z,101919.57
2024-05-09T09:31:36.689Z,101918.58
2024-05-09T09:34:08.485Z,101917.73
2024-05-09T09:36:40.141Z,101920.25
2024-05-09T09:39:10.336Z,101919.35
2024-05-09T09:41:41.445Z,101918.36
2024-05-09T09:44:11.221Z,101919.50
2024-05-09T09:46:41.560Z,101916.95
2024-05-09T09:49:11.031Z,101912.69
2024-05-09T09:51:43.359Z,101905.54
2024-05-09T09:54:13.830Z,101903.31
2024-05-09T09:56:44.350Z,101897.53
2024-05-09T09:59:13.422Z,101896.73
2024-05-09T10:01:44.918Z,101897.19
2024-05-09T10:04:20.446Z,101901.46
2024-05-09T10:06:58.928Z,101902.41
2024-05-09T10:09:27.678Z,101908.45
2024-05-09T10:12:00.192Z,101899.58
2024-05-09T10:14:32.821Z,101900.09
2024-05-09T10:17:05.341Z,101898.65
2024-05-09T10:19:35.028Z,101900.40
2024-05-09T10:22:04.063Z,101902.42
2024-05-09T10:25:05.183Z,101903.48
2024-05-09T10:27:34.227Z,101902.52
2024-05-09T10:30:11.292Z,101901.88
2024-05-09T10:32:44.428Z,101896.12
2024-05-09T10:35:14.436Z,101894.45
2024-05-09T10:37:45.624Z,101892.23
2024-05-09T10:40:26.321Z,101892.25
2024-05-09T10:43:02.596Z,101885.92
2024-05-09T10:45:35.297Z,101886.30
2024-05-09T10:48:06.189Z,101885.62
2024-05-09T10:50:35.110Z,101885.32
2024-05-09T10:53:03.704Z,101884.41
2024-05-09T10:55:32.409Z,101882.21
2024-05-09T10:58:00.874Z,101881.77
2024-05-09T11:00:36.034Z,101879.02
2024-05-09T11:03:10.925Z,101879.63
2024-05-09T11:05:45.086Z,101878.56
2024-05-09T11:08:14.750Z,101879.46
2024-05-09T11:10:45.536Z,101879.58
2024-05-09T11:13:43.871Z,101876.89
2024-05-09T11:16:21.056Z,101875.73
2024-05-09T11:18:58.564Z,101869.73
2024-05-09T11:21:27.516Z,101870.55
2024-05-09T11:23:56.957Z,101869.89
2024-05-09T11:26:28.779Z,101870.27
2024-05-09T11:28:57.209Z,101873.35
2024-05-09T11:31:25.878Z,101870.52
2024-05-09T11:33:59.844Z,101867.48
2024-05-09T11:36:28.669Z,101869.58
2024-05-09T11:38:57.209Z,101868.02
2024-05-09T11:41:26.550Z,101867.84
2024-05-09T11:43:57.227Z,101868.84
2024-05-09T11:46:27.373Z,101864.34
2024-05-09T11:48:55.767Z,101867.30
2024-05-09T11:51:24.459Z,101862.45
2024-05-09T11:53:53.064Z,101862.80
2024-05-09T11:56:21.578Z,101861.20
2024-05-09T11:58:49.970Z,101860.09
2024-05-09T12:01:19.332Z,101856.46
2024-05-09T12:03:50.752Z,101855.81
2024-05-09T12:06:19.541Z,101852.33
2024-05-09T12:08:47.765Z,101849.17
2024-05-09T12:11:16.274Z,101851.96
2024-05-09T12:13:44.710Z,101844.86
2024-05-09T12:16:13.514Z,101843.93
2024-05-09T12:18:44.445Z,101839.83
2024-05-09T12:21:16.470Z,101842.60
2024-05-09T12:23:45.001Z,101840.98
2024-05-09T12:26:15.096Z,101838.66
2024-05-09T12:28:43.844Z,101840.73
2024-05-09T12:31:12.496Z,101841.77
2024-05-09T12:33:40.790Z,101841.27
2024-05-09T12:36:09.133Z,101840.78
2024-05-09T12:38:38.309Z,101836.39
2024-05-09T12:41:06.846Z,101833.17
2024-05-09T12:43:35.441Z,101828.42
2024-05-09T12:46:04.522Z,101831.72
2024-05-09T12:48:33.300Z,101824.01
2024-05-09T12:51:02.356Z,101825.41
2024-05-09T12:53:30.553Z,101825.03
2024-05-09T12:56:02.345Z,101820.84
2024-05-09T12:58:32.086Z,101815.70
2024-05-09T13:01:00.462Z,101821.20
2024-05-09T13:03:29.264Z,101820.79
2024-05-09T13:05:58.079Z,101824.19
2024-05-09T13:08:26.478Z,101822.85
2024-05-09T13:10:57.997Z,101821.31
2024-05-09T13:13:28.654Z,101820.61
2024-05-09T13:15:57.147Z,101815.90
2024-05-09T13:18:25.527Z,101817.71
2024-05-09T13:20:53.793Z,101815.52
2024-05-09T13:23:22.617Z,101814.97
2024-05-09T13:25:51.894Z,101811.58
2024-05-09T13:28:20.529Z,101810.82
2024-05-09T13:30:48.937Z,101809.33
2024-05-09T13:33:17.403Z,101807.50
2024-05-09T13:35:49.662Z,101811.26
2024-05-09T13:38:20.135Z,101809.69
2024-05-09T13:40:49.858Z,101807.55
2024-05-09T13:43:20.177Z,101806.11
2024-05-09T13:45:48.756Z,101803.59
2024-05-09T13:48:19.128Z,101800.77
2024-05-09T13:50:47.699Z,101797.98
2024-05-09T13:53:16.339Z,101791.27
2024-05-09T13:55:44.856Z,101794.57
2024-05-09T13:58:13.366Z,101790.00
2024-05-09T14:00:47.307Z,101791.41
2024-05-09T14:03:19.635Z,101790.59
2024-05-09T14:05:51.691Z,101789.92
2024-05-09T14:08:21.424Z,101786.63
2024-05-09T14:10:50.495Z,101785.45
2024-05-09T14:13:19.728Z,101782.30
2024-05-09T14:15:48.558Z,101779.97
2024-05-09T14:18:17.647Z,101784.83
2024-05-09T14:20:46.835Z,101783.20
2024-05-09T14:23:17.414Z,101784.09
2024-05-09T14:25:48.166Z,101786.85
2024-05-09T14:28:19.644Z,101782.23
2024-05-09T14:30:48.343Z,101779.10
2024-05-09T14:33:22.596Z,101780.90
2024-05-09T14:35:51.318Z,101777.70
2024-05-09T14:38:19.539Z,101780.38
2024-05-09T14:40:48.044Z,101780.16
2024-05-09T14:43:17.533Z,101778.17
2024-05-09T14:45:46.129Z,101778.94
2024-05-09T14:48:15.855Z,101778.39
2024-05-09T14:50:44.373Z,101778.58
2024-05-09T14:53:13.642Z,101774.73
2024-05-09T14:55:43.700Z,101773.57
2024-05-09T14:58:13.177Z,101769.16
2024-05-09T15:00:48.544Z,101762.70
2024-05-09T15:03:24.857Z,101762.59
2024-05-09T15:05:53.807Z,101762.46
2024-05-09T15:08:22.539Z,101763.52
2024-05-09T15:10:51.229Z,101761.84
2024-05-09T15:13:20.805Z,101762.88
2024-05-09T15:15:49.767Z,101760.15
2024-05-09T15:18:18.822Z,101759.75
2024-05-09T15:20:47.669Z,101760.61
2024-05-09T15:23:16.070Z,101757.88
2024-05-09T15:25:44.413Z,101758.48
2024-05-09T15:28:13.000Z,101757.71
2024-05-09T15:30:45.448Z,101756.43
2024-05-09T15:33:15.086Z,101756.45
2024-05-09T15:35:45.599Z,101755.14
2024-05-09T15:38:17.201Z,101749.98
2024-05-09T15:40:45.985Z,101748.13
2024-05-09T15:43:14.879Z,101751.58
2024-05-09T15:45:43.458Z,101753.05
2024-05-09T15:48:18.853Z,101751.66
2024-05-09T15:50:47.877Z,101754.88
2024-05-09T15:53:16.263Z,101756.93
2024-05-09T15:55:44.720Z,101756.23
2024-05-09T15:58:14.202Z,101753.98
2024-05-09T16:00:44.749Z,101754.05
2024-05-09T16:03:15.303Z,101755.61
2024-05-09T16:05:45.085Z,101755.77
2024-05-09T16:08:14.360Z,101755.73
2024-05-09T16:10:45.624Z,101759.23
2024-05-09T16:13:16.054Z,101763.62
2024-05-09T16:15:46.278Z,101766.17
2024-05-09T16:18:15.025Z,101767.62
2024-05-09T16:20:44.936Z,101768.35
2024-05-09T16:23:14.930Z,101768.95
2024-05-09T16:25:45.524Z,101773.31
2024-05-09T16:28:14.122Z,101778.36
2024-05-09T16:30:42.561Z,101778.87
2024-05-09T16:33:14.532Z,101779.80
2024-05-09T16:35:46.093Z,101778.69
2024-05-09T16:38:14.442Z,101779.83
2024-05-09T16:40:43.204Z,101779.15
2024-05-09T16:43:13.188Z,101781.23
2024-05-09T16:45:44.118Z,101779.33
2024-05-09T16:48:15.467Z,101784.13
2024-05-09T16:50:44.505Z,101785.34
2024-05-09T16:53:13.072Z,101790.36
2024-05-09T16:55:41.384Z,101789.52
2024-05-09T16:58:11.560Z,101795.04
2024-05-09T17:00:43.065Z,101790.38
2024-05-09T17:03:14.713Z,101793.02
2024-05-09T17:05:45.100Z,101794.35
2024-05-09T17:08:15.862Z,101797.59
2024-05-09T17:10:46.787Z,101797.63
2024-05-09T17:13:15.320Z,101802.22
2024-05-09T17:15:43.809Z,101801.14
2024-05-09T17:18:12.446Z,101806.92
2024-05-09T17:20:41.179Z,101803.66
2024-05-09T17:23:13.736Z,101806.39
2024-05-09T17:25:43.006Z,101808.46
2024-05-09T17:28:12.240Z,101807.69
2024-05-09T17:30:42.229Z,101810.91
2024-05-09T17:33:12.820Z,101812.08
2024-05-09T17:35:41.877Z,101817.05
2024-05-09T17:38:10.730Z,101822.23
2024-05-09T17:40:39.775Z,101821.61
2024-05-09T17:43:10.414Z,101827.35
2024-05-09T17:45:40.651Z,101830.34
2024-05-09T17:48:11.382Z,101830.09
2024-05-09T17:50:42.000Z,101834.66
2024-05-09T17:53:11.916Z,101837.77
2024-05-09T17:55:40.822Z,101844.42
2024-05-09T17:58:11.527Z,101841.63
2024-05-09T18:00:42.554Z,101841.91
2024-05-09T18:03:15.222Z,101841.95
2024-05-09T18:05:46.041Z,101853.04
2024-05-09T18:08:14.442Z,101855.53
2024-05-09T18:10:43.638Z,101858.05
2024-05-09T18:13:12.704Z,101866.75
2024-05-09T18:15:41.392Z,101872.48
2024-05-09T18:18:11.377Z,101873.59
2024-05-09T18:20:44.225Z,101875.50
2024-05-09T18:23:17.477Z,101878.90
2024-05-09T18:25:48.092Z,101880.52
2024-05-09T18:28:17.389Z,101882.50
2024-05-09T18:30:46.431Z,101886.56
2024-05-09T18:33:15.515Z,101888.16
2024-05-09T18:35:44.829Z,101887.45
2024-05-09T18:38:13.257Z,101892.33
2024-05-09T18:40:43.935Z,101893.58
2024-05-09T18:43:14.915Z,101897.36
2024-05-09T18:45:43.864Z,101896.48
2024-05-09T18:48:13.016Z,101903.92
2024-05-09T18:50:42.022Z,101903.32
2024-05-09T18:53:12.564Z,101904.38
2024-05-09T18:55:42.275Z,101911.80
2024-05-09T18:58:11.107Z,101913.15
2024-05-09T19:00:41.766Z,101918.40
2024-05-09T19:03:14.028Z,101920.01
2024-05-09T19:05:44.666Z,101920.85
2024-05-09T19:08:15.397Z,101922.73
2024-05-09T19:10:47.145Z,101923.65
2024-05-09T19:13:15.892Z,101925.61
2024-05-09T19:15:44.738Z,101928.38
2024-05-09T19:18:14.267Z,101928.79
2024-05-09T19:20:43.593Z,101929.64
2024-05-09T19:23:12.262Z,101931.50
2024-05-09T19:25:42.815Z,101931.70
2024-05-09T19:28:12.403Z,101930.43
2024-05-09T19:30:42.515Z,101932.46
2024-05-09T19:33:15.317Z,101935.27
2024-05-09T19:35:43.898Z,101933.87
2024-05-09T19:38:13.975Z,101936.04
2024-05-09T19:40:42.463Z,101938.85
2024-05-09T19:43:11.073Z,101943.27
2024-05-09T19:45:39.653Z,101940.39
2024-05-09T19:48:08.333Z,101943.40
2024-05-09T19:50:42.231Z,101945.04
2024-05-09T19:53:14.063Z,101947.20
2024-05-09T19:55:42.753Z,101945.89
2024-05-09T19:58:12.061Z,101950.19
2024-05-09T20:00:43.155Z,101949.48
2024-05-09T20:03:14.825Z,101949.15
2024-05-09T20:05:47.132Z,101953.17
2024-05-09T20:08:16.029Z,101956.40
2024-05-09T20:10:44.728Z,101956.93
2024-05-09T20:13:13.351Z,101962.38
2024-05-09T20:15:41.887Z,101963.09
2024-05-09T20:18:10.974Z,101962.46
2024-05-09T20:20:44.073Z,101963.48
2024-05-09T20:23:15.092Z,101964.38
2024-05-09T20:25:43.334Z,101964.27
2024-05-09T20:28:11.837Z,101960.25
2024-05-09T20:30:41.502Z,101957.90
2024-05-09T20:33:15.666Z,101958.38
2024-05-09T20:35:46.169Z,101958.39
2024-05-09T20:38:15.527Z,101953.81
2024-05-09T20:40:48.362Z,101954.99
2024-05-09T20:43:17.487Z,101956.77
2024-05-09T20:45:46.116Z,101953.90
2024-05-09T20:48:14.792Z,101957.88
2024-05-09T20:50:43.144Z,101955.91
2024-05-09T20:53:13.963Z,101956.79
2024-05-09T20:55:43.983Z,101957.27
2024-05-09T20:58:16.055Z,101958.54
2024-05-09T21:00:46.248Z,101961.90
2024-05-09T21:03:16.917Z,101964.96
2024-05-09T21:05:48.515Z,101965.73
2024-05-09T21:08:17.482Z,101964.83
2024-05-09T21:10:47.120Z,101961.90
2024-05-09T21:13:15.882Z,101964.90
2024-05-09T21:15:44.236Z,101963.19
2024-05-09T21:18:12.901Z,101963.91
2024-05-09T21:20:42.099Z,101965.87
2024-05-09T21:23:10.781Z,101967.90
2024-05-09T21:25:39.393Z,101964.73
2024-05-09T21:28:07.737Z,101966.60
2024-05-09T21:30:41.648Z,101967.29
2024-05-09T21:33:13.297Z,101966.52
2024-05-09T21:35:43.530Z,101968.41
2024-05-09T21:38:14.028Z,101967.10
2024-05-09T21:40:43.184Z,101968.23
2024-05-09T21:43:14.661Z,101968.06
2024-05-09T21:45:43.337Z,101970.19
2024-05-09T21:48:12.793Z,101966.67
2024-05-09T21:50:42.414Z,101967.02
2024-05-09T21:53:12.501Z,101966.35
2024-05-09T21:55:42.475Z,101964.35
2024-05-09T21:58:13.481Z,101965.04
2024-05-09T22:00:44.578Z,101965.71
2024-05-09T22:03:14.479Z,101966.47
2024-05-09T22:05:43.890Z,101971.34
2024-05-09T22:08:15.517Z,101969.60
2024-05-09T22:10:47.017Z,101967.34
2024-05-09T22:13:18.026Z,101965.33
2024-05-09T22:15:49.619Z,101967.13
2024-05-09T22:18:19.094Z,101960.14
2024-05-09T22:20:48.353Z,101959.80
2024-05-09T22:23:16.656Z,101957.56
2024-05-09T22:25:47.057Z,101954.91
2024-05-09T22:28:15.895Z,101953.03
2024-05-09T22:30:46.518Z,101951.36
2024-05-09T22:33:15.778Z,101945.34
2024-05-09T22:35:44.508Z,101947.09
2024-05-09T22:38:13.637Z,101944.82
2024-05-09T22:40:47.656Z,101940.45
2024-05-09T22:43:24.099Z,101936.05
2024-05-09T22:45:53.951Z,101932.88
2024-05-09T22:48:24.559Z,101934.20
2024-05-09T22:50:55.285Z,101930.61
2024-05-09T22:53:27.351Z,101928.40
2024-05-09T22:55:55.617Z,101927.19
2024-05-09T22:58:24.586Z,101924.61
2024-05-09T23:00:53.268Z,101925.71
2024-05-09T23:03:22.131Z,101921.98
2024-05-09T23:05:52.610Z,101924.94
2024-05-09T23:08:21.131Z,101920.96
2024-05-09T23:10:49.893Z,101918.67
2024-05-09T23:13:18.259Z,101921.57
2024-05-09T23:15:46.634Z,101919.23
2024-05-09T23:18:14.855Z,101922.53
2024-05-09T23:20:43.175Z,101921.98
2024-05-09T23:23:12.205Z,101921.39
2024-05-09T23:25:41.130Z,101920.90
2024-05-09T23:28:11.291Z,101920.09
2024-05-09T23:30:42.028Z,101920.66
2024-05-09T23:33:13.767Z,101919.59
2024-05-09T23:35:44.873Z,101920.69
2024-05-09T23:38:13.792Z,101919.08
2024-05-09T23:40:43.671Z,101918.70
2024-05-09T23:43:14.896Z,101920.31
2024-05-09T23:45:43.428Z,101923.77
2024-05-09T23:48:16.044Z,101925.20
2024-05-09T23:50:44.415Z,101926.60
2024-05-09T23:53:16.151Z,101924.63
2024-05-09T23:55:44.528Z,101925.76
2024-05-09T23:58:12.906Z,101924.11
